sensor_id;sensor_type;location;lat;lon;timestamp;pressure;altitude;pressure_sealevel;temperature;humidity
77333;BME280;66408;51.326;12.070;2023-08-07T00:02:00;99612.28;;;17.75;77.03
77333;BME280;66408;51.326;12.070;2023-08-07T00:04:26;99620.97;;;17.77;76.43
77333;BME280;66408;51.326;12.070;2023-08-07T00:06:53;99621.38;;;17.79;76.57
77333;BME280;66408;51.326;12.070;2023-08-07T00:09:19;99619.09;;;17.85;76.66
77333;BME280;66408;51.326;12.070;2023-08-07T00:11:46;99617.88;;;17.82;76.13
77333;BME280;66408;51.326;12.070;2023-08-07T00:14:12;99617.19;;;17.89;75.73
77333;BME280;66408;51.326;12.070;2023-08-07T00:16:39;99620.00;;;17.92;75.51
77333;BME280;66408;51.326;12.070;2023-08-07T00:19:05;99615.78;;;17.99;75.38
77333;BME280;66408;51.326;12.070;2023-08-07T00:21:32;99625.69;;;17.80;75.50
77333;BME280;66408;51.326;12.070;2023-08-07T00:24:00;99616.72;;;17.83;75.45
77333;BME280;66408;51.326;12.070;2023-08-07T00:26:27;99617.94;;;17.86;75.62
77333;BME280;66408;51.326;12.070;2023-08-07T00:28:53;99621.78;;;17.81;74.56
77333;BME280;66408;51.326;12.070;2023-08-07T00:31:20;99616.34;;;17.85;75.17
77333;BME280;66408;51.326;12.070;2023-08-07T00:33:49;99621.84;;;17.85;74.23
77333;BME280;66408;51.326;12.070;2023-08-07T00:36:18;99625.28;;;17.78;74.38
77333;BME280;66408;51.326;12.070;2023-08-07T00:38:44;99622.41;;;17.71;75.03
77333;BME280;66408;51.326;12.070;2023-08-07T00:41:11;99621.53;;;17.64;75.33
77333;BME280;66408;51.326;12.070;2023-08-07T00:43:37;99621.59;;;17.67;75.70
77333;BME280;66408;51.326;12.070;2023-08-07T00:46:04;99626.91;;;17.60;74.55
77333;BME280;66408;51.326;12.070;2023-08-07T00:48:31;99621.94;;;17.66;74.41
77333;BME280;66408;51.326;12.070;2023-08-07T00:50:58;99627.91;;;17.71;74.27
77333;BME280;66408;51.326;12.070;2023-08-07T00:53:25;99625.59;;;17.73;74.30
77333;BME280;66408;51.326;12.070;2023-08-07T00:55:51;99625.16;;;17.71;75.63
77333;BME280;66408;51.326;12.070;2023-08-07T00:58:18;99627.09;;;17.67;74.82
77333;BME280;66408;51.326;12.070;2023-08-07T01:00:45;99632.53;;;17.64;75.17
77333;BME280;66408;51.326;12.070;2023-08-07T01:03:12;99633.31;;;17.64;74.30
77333;BME280;66408;51.326;12.070;2023-08-07T01:05:40;99635.59;;;17.62;75.08
77333;BME280;66408;51.326;12.070;2023-08-07T01:08:07;99634.28;;;17.52;74.52
77333;BME280;66408;51.326;12.070;2023-08-07T01:11:14;99643.34;;;17.56;75.28
77333;BME280;66408;51.326;12.070;2023-08-07T01:14:02;99640.06;;;17.47;74.61
77333;BME280;66408;51.326;12.070;2023-08-07T01:16:34;99639.44;;;17.57;75.22
77333;BME280;66408;51.326;12.070;2023-08-07T01:19:03;99642.88;;;17.51;74.59
77333;BME280;66408;51.326;12.070;2023-08-07T01:21:32;99639.03;;;17.55;74.70
77333;BME280;66408;51.326;12.070;2023-08-07T01:24:02;99638.59;;;17.53;74.74
77333;BME280;66408;51.326;12.070;2023-08-07T01:26:29;99641.84;;;17.36;75.23
77333;BME280;66408;51.326;12.070;2023-08-07T01:29:09;99642.50;;;17.30;74.68
77333;BME280;66408;51.326;12.070;2023-08-07T01:31:39;99642.50;;;17.30;76.34
77333;BME280;66408;51.326;12.070;2023-08-07T01:34:10;99640.31;;;17.39;74.79
77333;BME280;66408;51.326;12.070;2023-08-07T01:36:40;99644.69;;;17.43;75.68
77333;BME280;66408;51.326;12.070;2023-08-07T01:39:08;99635.59;;;17.39;75.29
77333;BME280;66408;51.326;12.070;2023-08-07T01:41:35;99641.53;;;17.41;74.96
77333;BME280;66408;51.326;12.070;2023-08-07T01:44:02;99642.09;;;17.50;75.09
77333;BME280;66408;51.326;12.070;2023-08-07T01:46:30;99645.63;;;17.51;74.75
77333;BME280;66408;51.326;12.070;2023-08-07T01:48:57;99644.91;;;17.54;74.28
77333;BME280;66408;51.326;12.070;2023-08-07T01:51:23;99649.97;;;17.52;75.34
77333;BME280;66408;51.326;12.070;2023-08-07T01:53:50;99638.19;;;17.51;74.91
77333;BME280;66408;51.326;12.070;2023-08-07T01:56:16;99639.63;;;17.45;74.57
77333;BME280;66408;51.326;12.070;2023-08-07T01:58:43;99646.00;;;17.49;74.59
77333;BME280;66408;51.326;12.070;2023-08-07T02:01:10;99648.66;;;17.46;74.10
77333;BME280;66408;51.326;12.070;2023-08-07T02:03:36;99651.06;;;17.47;73.79
77333;BME280;66408;51.326;12.070;2023-08-07T02:06:03;99643.84;;;17.39;74.15
77333;BME280;66408;51.326;12.070;2023-08-07T02:08:30;99653.44;;;17.49;74.49
77333;BME280;66408;51.326;12.070;2023-08-07T02:10:59;99658.56;;;17.50;73.67
77333;BME280;66408;51.326;12.070;2023-08-07T02:13:28;99661.25;;;17.47;74.12
77333;BME280;66408;51.326;12.070;2023-08-07T02:15:54;99666.09;;;17.53;72.91
77333;BME280;66408;51.326;12.070;2023-08-07T02:18:21;99663.78;;;17.55;72.98
77333;BME280;66408;51.326;12.070;2023-08-07T02:20:47;99669.63;;;17.54;72.91
77333;BME280;66408;51.326;12.070;2023-08-07T02:23:14;99658.66;;;17.54;73.07
77333;BME280;66408;51.326;12.070;2023-08-07T02:25:41;99657.50;;;17.55;74.23
77333;BME280;66408;51.326;12.070;2023-08-07T02:28:07;99657.50;;;17.55;72.11
77333;BME280;66408;51.326;12.070;2023-08-07T02:30:34;99661.44;;;17.57;72.16
77333;BME280;66408;51.326;12.070;2023-08-07T02:33:01;99660.63;;;17.57;72.75
77333;BME280;66408;51.326;12.070;2023-08-07T02:35:27;99663.34;;;17.53;72.40
77333;BME280;66408;51.326;12.070;2023-08-07T02:37:54;99664.50;;;17.52;73.67
77333;BME280;66408;51.326;12.070;2023-08-07T02:40:20;99668.84;;;17.53;72.22
77333;BME280;66408;51.326;12.070;2023-08-07T02:42:47;99668.06;;;17.53;73.06
77333;BME280;66408;51.326;12.070;2023-08-07T02:45:14;99678.63;;;17.51;72.68
77333;BME280;66408;51.326;12.070;2023-08-07T02:47:40;99671.44;;;17.46;74.14
77333;BME280;66408;51.326;12.070;2023-08-07T02:50:07;99666.81;;;17.50;73.70
77333;BME280;66408;51.326;12.070;2023-08-07T02:52:33;99675.00;;;17.47;73.58
77333;BME280;66408;51.326;12.070;2023-08-07T02:55:00;99670.66;;;17.46;74.18
77333;BME280;66408;51.326;12.070;2023-08-07T02:57:26;99679.25;;;17.44;73.99
77333;BME280;66408;51.326;12.070;2023-08-07T02:59:53;99665.13;;;17.42;75.05
77333;BME280;66408;51.326;12.070;2023-08-07T03:02:19;99675.34;;;17.45;74.96
77333;BME280;66408;51.326;12.070;2023-08-07T03:04:46;99680.06;;;17.45;74.90
77333;BME280;66408;51.326;12.070;2023-08-07T03:07:13;99682.00;;;17.44;75.11
77333;BME280;66408;51.326;12.070;2023-08-07T03:09:39;99684.72;;;17.41;74.80
77333;BME280;66408;51.326;12.070;2023-08-07T03:12:06;99685.56;;;17.45;73.71
77333;BME280;66408;51.326;12.070;2023-08-07T03:14:33;99679.22;;;17.41;74.47
77333;BME280;66408;51.326;12.070;2023-08-07T03:16:59;99685.53;;;17.41;74.59
77333;BME280;66408;51.326;12.070;2023-08-07T03:19:26;99691.38;;;17.40;74.12
77333;BME280;66408;51.326;12.070;2023-08-07T03:21:52;99690.56;;;17.39;74.30
77333;BME280;66408;51.326;12.070;2023-08-07T03:24:19;99689.78;;;17.39;73.46
77333;BME280;66408;51.326;12.070;2023-08-07T03:26:45;99700.25;;;17.33;75.31
77333;BME280;66408;51.326;12.070;2023-08-07T03:29:13;99697.75;;;17.24;74.65
77333;BME280;66408;51.326;12.070;2023-08-07T03:31:40;99705.63;;;17.26;74.22
77333;BME280;66408;51.326;12.070;2023-08-07T03:34:06;99708.66;;;17.21;74.29
77333;BME280;66408;51.326;12.070;2023-08-07T03:36:33;99718.81;;;17.17;75.66
77333;BME280;66408;51.326;12.070;2023-08-07T03:38:59;99716.44;;;17.15;75.29
77333;BME280;66408;51.326;12.070;2023-08-07T03:41:26;99720.63;;;17.09;75.51
77333;BME280;66408;51.326;12.070;2023-08-07T03:43:53;99718.31;;;17.11;75.63
77333;BME280;66408;51.326;12.070;2023-08-07T03:46:19;99717.66;;;16.99;74.60
77333;BME280;66408;51.326;12.070;2023-08-07T03:48:46;99724.03;;;17.03;75.62
77333;BME280;66408;51.326;12.070;2023-08-07T03:51:12;99724.38;;;17.01;75.07
77333;BME280;66408;51.326;12.070;2023-08-07T03:53:41;99721.63;;;17.01;75.04
77333;BME280;66408;51.326;12.070;2023-08-07T03:56:07;99724.94;;;17.10;75.74
77333;BME280;66408;51.326;12.070;2023-08-07T03:58:34;99726.91;;;17.10;74.39
77333;BME280;66408;51.326;12.070;2023-08-07T04:01:00;99732.03;;;17.11;74.95
77333;BME280;66408;51.326;12.070;2023-08-07T04:03:27;99739.84;;;17.09;74.67
77333;BME280;66408;51.326;12.070;2023-08-07T04:05:54;99740.19;;;17.08;75.04
77333;BME280;66408;51.326;12.070;2023-08-07T04:08:22;99739.91;;;17.13;74.85
77333;BME280;66408;51.326;12.070;2023-08-07T04:11:02;99747.28;;;17.09;74.67
77333;BME280;66408;51.326;12.070;2023-08-07T04:13:29;99744.53;;;17.09;73.43
77333;BME280;66408;51.326;12.070;2023-08-07T04:15:56;99732.91;;;17.15;74.07
77333;BME280;66408;51.326;12.070;2023-08-07T04:18:23;99748.88;;;17.10;73.60
77333;BME280;66408;51.326;12.070;2023-08-07T04:20:52;99753.13;;;17.07;73.50
77333;BME280;66408;51.326;12.070;2023-08-07T04:23:19;99752.28;;;17.03;74.70
77333;BME280;66408;51.326;12.070;2023-08-07T04:25:47;99754.25;;;17.03;74.58
77333;BME280;66408;51.326;12.070;2023-08-07T04:28:14;99765.28;;;17.06;74.53
77333;BME280;66408;51.326;12.070;2023-08-07T04:30:41;99765.81;;;17.12;74.65
77333;BME280;66408;51.326;12.070;2023-08-07T04:33:08;99759.94;;;17.13;74.25
77333;BME280;66408;51.326;12.070;2023-08-07T04:35:34;99762.38;;;17.18;73.57
77333;BME280;66408;51.326;12.070;2023-08-07T04:38:02;99771.44;;;17.19;73.96
77333;BME280;66408;51.326;12.070;2023-08-07T04:40:29;99771.88;;;17.21;73.67
77333;BME280;66408;51.326;12.070;2023-08-07T04:42:56;99763.63;;;17.21;73.12
77333;BME280;66408;51.326;12.070;2023-08-07T04:45:23;99770.94;;;17.13;72.98
77333;BME280;66408;51.326;12.070;2023-08-07T04:47:49;99776.94;;;17.19;73.39
77333;BME280;66408;51.326;12.070;2023-08-07T04:50:17;99781.13;;;17.13;72.80
77333;BME280;66408;51.326;12.070;2023-08-07T04:52:43;99778.75;;;17.11;73.71
77333;BME280;66408;51.326;12.070;2023-08-07T04:55:10;99785.97;;;17.19;72.41
77333;BME280;66408;51.326;12.070;2023-08-07T04:57:36;99792.63;;;17.18;73.24
77333;BME280;66408;51.326;12.070;2023-08-07T05:00:03;99798.69;;;17.08;73.84
77333;BME280;66408;51.326;12.070;2023-08-07T05:02:30;99801.00;;;17.06;73.57
77333;BME280;66408;51.326;12.070;2023-08-07T05:04:57;99798.81;;;16.96;73.83
77333;BME280;66408;51.326;12.070;2023-08-07T05:07:23;99796.94;;;17.00;74.31
77333;BME280;66408;51.326;12.070;2023-08-07T05:09:53;99798.19;;;17.03;74.16
77333;BME280;66408;51.326;12.070;2023-08-07T05:12:19;99797.47;;;17.06;74.38
77333;BME280;66408;51.326;12.070;2023-08-07T05:14:46;99795.13;;;17.08;74.26
77333;BME280;66408;51.326;12.070;2023-08-07T05:17:12;99795.75;;;17.17;74.38
77333;BME280;66408;51.326;12.070;2023-08-07T05:19:40;99796.81;;;17.12;73.11
77333;BME280;66408;51.326;12.070;2023-08-07T05:22:06;99803.47;;;17.11;73.97
77333;BME280;66408;51.326;12.070;2023-08-07T05:24:33;99797.97;;;17.11;74.63
77333;BME280;66408;51.326;12.070;2023-08-07T05:27:07;99799.34;;;17.02;73.81
77333;BME280;66408;51.326;12.070;2023-08-07T05:29:35;99807.72;;;17.09;74.04
77333;BME280;66408;51.326;12.070;2023-08-07T05:32:10;99809.19;;;17.03;73.50
77333;BME280;66408;51.326;12.070;2023-08-07T05:34:38;99811.56;;;17.04;74.19
77333;BME280;66408;51.326;12.070;2023-08-07T05:37:05;99811.28;;;17.09;74.50
77333;BME280;66408;51.326;12.070;2023-08-07T05:39:32;99811.84;;;16.99;73.43
77333;BME280;66408;51.326;12.070;2023-08-07T05:41:59;99806.13;;;17.08;74.42
77333;BME280;66408;51.326;12.070;2023-08-07T05:44:26;99809.41;;;17.13;73.58
77333;BME280;66408;51.326;12.070;2023-08-07T05:46:53;99799.28;;;17.17;74.09
77333;BME280;66408;51.326;12.070;2023-08-07T05:49:20;99801.28;;;17.20;74.27
77333;BME280;66408;51.326;12.070;2023-08-07T05:51:50;99808.16;;;17.11;73.60
77333;BME280;66408;51.326;12.070;2023-08-07T05:54:17;99813.66;;;17.11;73.34
77333;BME280;66408;51.326;12.070;2023-08-07T05:56:43;99816.56;;;17.18;73.86
77333;BME280;66408;51.326;12.070;2023-08-07T05:59:10;99826.38;;;17.19;73.10
77333;BME280;66408;51.326;12.070;2023-08-07T06:01:36;99831.25;;;17.26;73.56
77333;BME280;66408;51.326;12.070;2023-08-07T06:04:03;99823.44;;;17.28;72.41
77333;BME280;66408;51.326;12.070;2023-08-07T06:06:30;99834.09;;;17.29;72.80
77333;BME280;66408;51.326;12.070;2023-08-07T06:09:00;99837.84;;;17.40;72.87
77333;BME280;66408;51.326;12.070;2023-08-07T06:11:29;99829.44;;;17.33;74.02
77333;BME280;66408;51.326;12.070;2023-08-07T06:13:55;99827.84;;;17.32;74.06
77333;BME280;66408;51.326;12.070;2023-08-07T06:16:22;99834.28;;;17.40;73.08
77333;BME280;66408;51.326;12.070;2023-08-07T06:18:49;99837.75;;;17.37;73.02
77333;BME280;66408;51.326;12.070;2023-08-07T06:21:15;99841.81;;;17.43;73.49
77333;BME280;66408;51.326;12.070;2023-08-07T06:23:42;99833.59;;;17.43;72.25
77333;BME280;66408;51.326;12.070;2023-08-07T06:26:08;99842.69;;;17.47;72.07
77333;BME280;66408;51.326;12.070;2023-08-07T06:28:35;99856.59;;;17.54;71.48
77333;BME280;66408;51.326;12.070;2023-08-07T06:31:07;99852.44;;;17.44;71.52
77333;BME280;66408;51.326;12.070;2023-08-07T06:33:34;99856.41;;;17.47;72.32
77333;BME280;66408;51.326;12.070;2023-08-07T06:36:04;99856.50;;;17.50;72.87
77333;BME280;66408;51.326;12.070;2023-08-07T06:38:31;99856.94;;;17.52;72.38
77333;BME280;66408;51.326;12.070;2023-08-07T06:40:58;99860.06;;;17.51;71.87
77333;BME280;66408;51.326;12.070;2023-08-07T06:43:25;99867.72;;;17.61;72.07
77333;BME280;66408;51.326;12.070;2023-08-07T06:45:53;99857.19;;;17.63;71.42
77333;BME280;66408;51.326;12.070;2023-08-07T06:48:20;99862.56;;;17.59;71.85
77333;BME280;66408;51.326;12.070;2023-08-07T06:50:47;99865.75;;;17.62;71.74
77333;BME280;66408;51.326;12.070;2023-08-07T06:53:14;99856.88;;;17.68;72.02
77333;BME280;66408;51.326;12.070;2023-08-07T06:55:41;99874.19;;;17.69;71.49
77333;BME280;66408;51.326;12.070;2023-08-07T06:58:08;99864.41;;;17.71;71.53
77333;BME280;66408;51.326;12.070;2023-08-07T07:00:35;99869.47;;;17.69;71.27
77333;BME280;66408;51.326;12.070;2023-08-07T07:03:02;99872.66;;;17.71;71.10
77333;BME280;66408;51.326;12.070;2023-08-07T07:05:30;99884.19;;;17.77;71.02
77333;BME280;66408;51.326;12.070;2023-08-07T07:07:57;99884.63;;;17.79;72.20
77333;BME280;66408;51.326;12.070;2023-08-07T07:10:24;99895.66;;;17.82;72.95
77333;BME280;66408;51.326;12.070;2023-08-07T07:12:50;99888.97;;;17.80;71.61
77333;BME280;66408;51.326;12.070;2023-08-07T07:15:18;99880.47;;;17.88;70.33
77333;BME280;66408;51.326;12.070;2023-08-07T07:17:44;99893.50;;;17.91;70.74
77333;BME280;66408;51.326;12.070;2023-08-07T07:20:11;99896.31;;;17.95;70.65
77333;BME280;66408;51.326;12.070;2023-08-07T07:22:38;99898.34;;;17.98;72.00
77333;BME280;66408;51.326;12.070;2023-08-07T07:25:05;99913.97;;;17.94;71.98
77333;BME280;66408;51.326;12.070;2023-08-07T07:27:31;99908.13;;;17.95;71.33
77333;BME280;66408;51.326;12.070;2023-08-07T07:29:58;99909.25;;;17.94;71.62
77333;BME280;66408;51.326;12.070;2023-08-07T07:32:24;99912.03;;;17.94;71.52
77333;BME280;66408;51.326;12.070;2023-08-07T07:34:52;99911.38;;;18.01;70.01
77333;BME280;66408;51.326;12.070;2023-08-07T07:37:19;99914.97;;;18.05;70.67
77333;BME280;66408;51.326;12.070;2023-08-07T07:39:45;99912.28;;;18.09;70.82
77333;BME280;66408;51.326;12.070;2023-08-07T07:42:12;99913.91;;;18.10;70.91
77333;BME280;66408;51.326;12.070;2023-08-07T07:44:38;99916.34;;;18.15;68.59
77333;BME280;66408;51.326;12.070;2023-08-07T07:47:07;99916.78;;;18.17;70.19
77333;BME280;66408;51.326;12.070;2023-08-07T07:49:37;99915.56;;;18.14;68.97
77333;BME280;66408;51.326;12.070;2023-08-07T07:52:04;99916.78;;;18.17;69.37
77333;BME280;66408;51.326;12.070;2023-08-07T07:54:31;99916.13;;;18.23;69.25
77333;BME280;66408;51.326;12.070;2023-08-07T07:56:58;99924.56;;;18.34;69.10
77333;BME280;66408;51.326;12.070;2023-08-07T07:59:25;99917.09;;;18.35;68.98
77333;BME280;66408;51.326;12.070;2023-08-07T08:01:51;99928.25;;;18.42;69.26
77333;BME280;66408;51.326;12.070;2023-08-07T08:04:19;99931.56;;;18.51;69.52
77333;BME280;66408;51.326;12.070;2023-08-07T08:06:46;99932.50;;;18.58;69.10
77333;BME280;66408;51.326;12.070;2023-08-07T08:09:14;99922.72;;;18.61;68.02
77333;BME280;66408;51.326;12.070;2023-08-07T08:11:41;99941.31;;;18.67;67.91
77333;BME280;66408;51.326;12.070;2023-08-07T08:14:08;99933.91;;;18.72;67.95
77333;BME280;66408;51.326;12.070;2023-08-07T08:16:35;99940.75;;;18.81;68.75
77333;BME280;66408;51.326;12.070;2023-08-07T08:19:11;99944.75;;;18.84;67.96
77333;BME280;66408;51.326;12.070;2023-08-07T08:21:37;99938.31;;;18.76;66.90
77333;BME280;66408;51.326;12.070;2023-08-07T08:24:06;99942.53;;;18.70;68.06
77333;BME280;66408;51.326;12.070;2023-08-07T08:26:33;99940.16;;;18.69;68.15
77333;BME280;66408;51.326;12.070;2023-08-07T08:29:00;99958.28;;;18.70;68.35
77333;BME280;66408;51.326;12.070;2023-08-07T08:31:26;99943.69;;;18.69;68.40
77333;BME280;66408;51.326;12.070;2023-08-07T08:33:53;99957.63;;;18.76;68.44
77333;BME280;66408;51.326;12.070;2023-08-07T08:36:19;99951.31;;;18.76;67.31
77333;BME280;66408;51.326;12.070;2023-08-07T08:38:46;99955.16;;;18.71;66.80
77333;BME280;66408;51.326;12.070;2023-08-07T08:41:16;99954.34;;;18.71;68.13
77333;BME280;66408;51.326;12.070;2023-08-07T08:43:44;99958.69;;;18.72;67.68
77333;BME280;66408;51.326;12.070;2023-08-07T08:46:14;99958.59;;;18.64;67.34
77333;BME280;66408;51.326;12.070;2023-08-07T08:48:43;99964.91;;;18.65;67.53
77333;BME280;66408;51.326;12.070;2023-08-07T08:51:13;99967.94;;;18.60;66.47
77333;BME280;66408;51.326;12.070;2023-08-07T08:53:39;99972.88;;;18.51;67.76
77333;BME280;66408;51.326;12.070;2023-08-07T08:56:06;99971.28;;;18.50;67.96
77333;BME280;66408;51.326;12.070;2023-08-07T08:58:33;99981.84;;;18.48;67.84
77333;BME280;66408;51.326;12.070;2023-08-07T09:01:01;99976.84;;;18.53;68.35
77333;BME280;66408;51.326;12.070;2023-08-07T09:03:27;99980.63;;;18.64;67.78
77333;BME280;66408;51.326;12.070;2023-08-07T09:05:58;99972.53;;;18.75;68.53
77333;BME280;66408;51.326;12.070;2023-08-07T09:08:27;99980.69;;;18.91;69.21
77333;BME280;66408;51.326;12.070;2023-08-07T09:10:56;99973.78;;;19.04;69.24
77333;BME280;66408;51.326;12.070;2023-08-07T09:13:23;99981.09;;;19.16;68.78
77333;BME280;66408;51.326;12.070;2023-08-07T09:15:52;99981.28;;;19.30;68.59
77333;BME280;66408;51.326;12.070;2023-08-07T09:18:19;99990.78;;;19.32;67.03
77333;BME280;66408;51.326;12.070;2023-08-07T09:20:47;99989.63;;;19.33;65.95
77333;BME280;66408;51.326;12.070;2023-08-07T09:23:16;99982.31;;;19.45;66.50
77333;BME280;66408;51.326;12.070;2023-08-07T09:25:44;99980.50;;;19.52;66.21
77333;BME280;66408;51.326;12.070;2023-08-07T09:28:11;99982.97;;;19.61;67.46
77333;BME280;66408;51.326;12.070;2023-08-07T09:30:38;99991.09;;;19.77;65.95
77333;BME280;66408;51.326;12.070;2023-08-07T09:33:07;99982.84;;;19.80;64.87
77333;BME280;66408;51.326;12.070;2023-08-07T09:35:34;99990.75;;;19.82;65.56
77333;BME280;66408;51.326;12.070;2023-08-07T09:38:01;99993.19;;;19.87;64.51
77333;BME280;66408;51.326;12.070;2023-08-07T09:40:29;99995.75;;;20.02;65.56
77333;BME280;66408;51.326;12.070;2023-08-07T09:42:56;99995.47;;;20.11;65.13
77333;BME280;66408;51.326;12.070;2023-08-07T09:45:27;99992.66;;;20.07;64.54
77333;BME280;66408;51.326;12.070;2023-08-07T09:48:01;100003.25;;;20.02;64.75
77333;BME280;66408;51.326;12.070;2023-08-07T09:50:29;100009.00;;;19.90;64.99
77333;BME280;66408;51.326;12.070;2023-08-07T09:52:56;100002.88;;;19.73;64.43
77333;BME280;66408;51.326;12.070;2023-08-07T09:55:25;100000.75;;;19.63;64.60
77333;BME280;66408;51.326;12.070;2023-08-07T09:57:52;100016.09;;;19.61;65.13
77333;BME280;66408;51.326;12.070;2023-08-07T10:00:19;100010.94;;;19.59;64.72
77333;BME280;66408;51.326;12.070;2023-08-07T10:02:48;100012.63;;;19.67;65.22
77333;BME280;66408;51.326;12.070;2023-08-07T10:05:15;100011.66;;;19.83;65.69
77333;BME280;66408;51.326;12.070;2023-08-07T10:07:42;100018.53;;;19.96;64.61
77333;BME280;66408;51.326;12.070;2023-08-07T10:10:14;100013.00;;;19.96;65.95
77333;BME280;66408;51.326;12.070;2023-08-07T10:12:41;100021.78;;;20.01;64.99
77333;BME280;66408;51.326;12.070;2023-08-07T10:15:08;100010.44;;;20.10;65.78
77333;BME280;66408;51.326;12.070;2023-08-07T10:17:35;100008.91;;;20.13;64.35
77333;BME280;66408;51.326;12.070;2023-08-07T10:20:01;100010.19;;;20.22;64.81
77333;BME280;66408;51.326;12.070;2023-08-07T10:22:30;100007.50;;;20.29;64.47
77333;BME280;66408;51.326;12.070;2023-08-07T10:24:58;100012.78;;;20.38;64.80
77333;BME280;66408;51.326;12.070;2023-08-07T10:27:29;100015.72;;;20.52;64.08
77333;BME280;66408;51.326;12.070;2023-08-07T10:29:59;100011.47;;;20.65;63.41
77333;BME280;66408;51.326;12.070;2023-08-07T10:32:27;99998.91;;;20.71;62.09
77333;BME280;66408;51.326;12.070;2023-08-07T10:34:55;100000.94;;;20.78;62.55
77333;BME280;66408;51.326;12.070;2023-08-07T10:37:42;100000.16;;;20.77;61.82
77333;BME280;66408;51.326;12.070;2023-08-07T10:40:10;100008.91;;;20.83;60.50
77333;BME280;66408;51.326;12.070;2023-08-07T10:45:20;99998.59;;;20.76;60.56
77333;BME280;66408;51.326;12.070;2023-08-07T10:48:01;100007.25;;;20.78;60.55
77333;BME280;66408;51.326;12.070;2023-08-07T10:50:31;100009.75;;;20.91;59.08
77333;BME280;66408;51.326;12.070;2023-08-07T10:53:04;100003.53;;;21.01;57.84
77333;BME280;66408;51.326;12.070;2023-08-07T10:55:42;100005.91;;;20.99;59.00
77333;BME280;66408;51.326;12.070;2023-08-07T10:58:30;100006.59;;;20.92;59.00
77333;BME280;66408;51.326;12.070;2023-08-07T11:03:51;99999.31;;;21.17;60.72
77333;BME280;66408;51.326;12.070;2023-08-07T11:06:21;100011.19;;;21.18;59.75
77333;BME280;66408;51.326;12.070;2023-08-07T11:08:49;100018.41;;;21.26;59.91
77333;BME280;66408;51.326;12.070;2023-08-07T11:11:16;100002.47;;;21.16;57.98
77333;BME280;66408;51.326;12.070;2023-08-07T11:13:43;100018.47;;;20.93;59.00
77333;BME280;66408;51.326;12.070;2023-08-07T11:16:11;100019.81;;;20.69;60.17
77333;BME280;66408;51.326;12.070;2023-08-07T11:18:38;100011.00;;;20.56;61.53
77333;BME280;66408;51.326;12.070;2023-08-07T11:21:11;100012.16;;;20.52;61.33
77333;BME280;66408;51.326;12.070;2023-08-07T11:23:40;100004.34;;;20.61;61.92
77333;BME280;66408;51.326;12.070;2023-08-07T11:26:08;100004.44;;;20.71;61.39
77333;BME280;66408;51.326;12.070;2023-08-07T11:28:35;100001.06;;;20.89;59.81
77333;BME280;66408;51.326;12.070;2023-08-07T11:31:02;100000.41;;;21.06;59.02
77333;BME280;66408;51.326;12.070;2023-08-07T11:33:29;100003.38;;;21.27;58.92
77333;BME280;66408;51.326;12.070;2023-08-07T11:35:55;100004.56;;;21.30;59.49
77333;BME280;66408;51.326;12.070;2023-08-07T11:38:33;100006.88;;;21.21;60.50
77333;BME280;66408;51.326;12.070;2023-08-07T11:41:01;100007.94;;;21.09;61.12
77333;BME280;66408;51.326;12.070;2023-08-07T11:43:29;100008.25;;;20.97;60.50
77333;BME280;66408;51.326;12.070;2023-08-07T11:45:57;100013.25;;;20.84;61.18
77333;BME280;66408;51.326;12.070;2023-08-07T11:48:28;100006.34;;;20.64;60.41
77333;BME280;66408;51.326;12.070;2023-08-07T11:50:56;99999.00;;;20.41;60.54
77333;BME280;66408;51.326;12.070;2023-08-07T11:53:25;100001.97;;;20.29;61.30
77333;BME280;66408;51.326;12.070;2023-08-07T11:55:53;100014.84;;;20.15;61.15
77333;BME280;66408;51.326;12.070;2023-08-07T11:58:21;100006.81;;;20.06;65.52
77333;BME280;66408;51.326;12.070;2023-08-07T12:00:47;100019.31;;;19.96;65.09
77333;BME280;66408;51.326;12.070;2023-08-07T12:03:37;100011.84;;;19.97;66.13
77333;BME280;66408;51.326;12.070;2023-08-07T12:06:06;100010.75;;;20.05;66.54
77333;BME280;66408;51.326;12.070;2023-08-07T12:11:05;100009.47;;;20.29;65.96
77333;BME280;66408;51.326;12.070;2023-08-07T12:13:32;100009.28;;;20.44;65.49
77333;BME280;66408;51.326;12.070;2023-08-07T12:16:02;100009.78;;;20.54;63.10
77333;BME280;66408;51.326;12.070;2023-08-07T12:18:30;100007.31;;;20.45;61.85
77333;BME280;66408;51.326;12.070;2023-08-07T12:21:04;100024.31;;;20.47;61.18
77333;BME280;66408;51.326;12.070;2023-08-07T12:23:33;100031.97;;;20.61;62.42
77333;BME280;66408;51.326;12.070;2023-08-07T12:26:01;100031.38;;;20.82;61.19
77333;BME280;66408;51.326;12.070;2023-08-07T12:28:27;100039.34;;;20.87;60.31
77333;BME280;66408;51.326;12.070;2023-08-07T12:30:54;100031.69;;;20.73;62.19
77333;BME280;66408;51.326;12.070;2023-08-07T12:33:20;100045.78;;;20.61;62.77
77333;BME280;66408;51.326;12.070;2023-08-07T12:35:47;100051.25;;;20.57;60.89
77333;BME280;66408;51.326;12.070;2023-08-07T12:38:13;100046.59;;;20.61;62.26
77333;BME280;66408;51.326;12.070;2023-08-07T12:40:41;100057.97;;;20.56;63.07
77333;BME280;66408;51.326;12.070;2023-08-07T12:43:10;100057.63;;;20.61;63.54
77333;BME280;66408;51.326;12.070;2023-08-07T12:45:37;100053.34;;;20.67;63.18
77333;BME280;66408;51.326;12.070;2023-08-07T12:48:06;100054.88;;;20.65;62.18
77333;BME280;66408;51.326;12.070;2023-08-07T12:50:34;100062.78;;;20.63;60.60
77333;BME280;66408;51.326;12.070;2023-08-07T12:53:01;100054.88;;;20.61;61.29
77333;BME280;66408;51.326;12.070;2023-08-07T12:55:28;100053.22;;;20.57;61.95
77333;BME280;66408;51.326;12.070;2023-08-07T12:57:57;100058.44;;;20.65;61.29
77333;BME280;66408;51.326;12.070;2023-08-07T13:00:24;100055.09;;;20.83;61.64